createdAt,value
2022-12-29T00:00:41.614Z,2.50
2022-12-29T00:03:08.351Z,2.50
2022-12-29T00:05:35.127Z,2.50
2022-12-29T00:08:01.805Z,2.50
2022-12-29T00:10:33.217Z,2.50
2022-12-29T00:13:35.292Z,2.40
2022-12-29T00:16:03.230Z,2.40
2022-12-29T00:18:29.949Z,2.40
2022-12-29T00:21:15.466Z,2.50
2022-12-29T00:24:00.579Z,2.40
2022-12-29T00:26:45.732Z,2.50
2022-12-29T00:29:30.834Z,2.50
2022-12-29T00:32:35.050Z,2.40
2022-12-29T00:35:10.680Z,2.40
2022-12-29T00:37:58.723Z,2.40
2022-12-29T00:40:43.842Z,2.50
2022-12-29T00:43:29.113Z,2.50
2022-12-29T00:46:11.720Z,2.50
2022-12-29T00:48:59.618Z,2.50
2022-12-29T00:51:26.279Z,2.50
2022-12-29T00:53:52.950Z,2.50
2022-12-29T00:56:19.649Z,2.50
2022-12-29T00:58:46.320Z,2.40
2022-12-29T01:01:13.053Z,2.50
2022-12-29T01:03:52.406Z,2.50
2022-12-29T01:06:50.894Z,2.50
2022-12-29T01:09:44.517Z,2.50
2022-12-29T01:12:11.622Z,2.50
2022-12-29T01:14:38.770Z,2.50
2022-12-29T01:17:05.996Z,2.40
2022-12-29T01:19:40.020Z,2.40
2022-12-29T01:22:06.640Z,2.30
2022-12-29T01:24:33.950Z,2.30
2022-12-29T01:27:00.868Z,2.30
2022-12-29T01:29:27.588Z,2.30
2022-12-29T01:31:54.287Z,2.30
2022-12-29T01:34:20.984Z,2.30
2022-12-29T01:36:47.698Z,2.20
2022-12-29T01:39:14.558Z,2.20
2022-12-29T01:41:41.330Z,2.20
2022-12-29T01:44:27.980Z,2.20
2022-12-29T01:46:54.632Z,2.20
2022-12-29T01:49:24.491Z,2.30
2022-12-29T01:51:53.251Z,2.30
2022-12-29T01:54:23.920Z,2.30
2022-12-29T01:56:51.771Z,2.30
2022-12-29T01:59:20.289Z,2.30
2022-12-29T02:01:47.189Z,2.30
2022-12-29T02:04:14.176Z,2.20
2022-12-29T02:06:56.721Z,2.20
2022-12-29T02:09:24.483Z,2.20
2022-12-29T02:11:51.644Z,2.30
2022-12-29T02:14:18.544Z,2.30
2022-12-29T02:17:17.800Z,2.30
2022-12-29T02:20:01.054Z,2.30
2022-12-29T02:22:40.891Z,2.30
2022-12-29T02:25:10.515Z,2.30
2022-12-29T02:27:56.108Z,2.30
2022-12-29T02:30:30.689Z,2.30
2022-12-29T02:33:16.151Z,2.30
2022-12-29T02:35:51.858Z,2.30
2022-12-29T02:38:26.247Z,2.30
2022-12-29T02:40:55.821Z,2.30
2022-12-29T02:43:27.525Z,2.30
2022-12-29T02:46:14.492Z,2.30
2022-12-29T02:48:47.579Z,2.40
2022-12-29T02:51:21.707Z,2.30
2022-12-29T02:54:07.724Z,2.30
2022-12-29T02:56:34.371Z,2.40
2022-12-29T02:59:24.095Z,2.40
2022-12-29T03:02:18.845Z,2.40
2022-12-29T03:05:04.585Z,2.40
2022-12-29T03:07:37.279Z,2.40
2022-12-29T03:10:16.447Z,2.40
2022-12-29T03:13:09.191Z,2.40
2022-12-29T03:15:59.313Z,2.40
2022-12-29T03:18:31.857Z,2.40
2022-12-29T03:21:01.394Z,2.30
2022-12-29T03:23:28.173Z,2.30
2022-12-29T03:25:57.153Z,2.30
2022-12-29T03:28:25.627Z,2.30
2022-12-29T03:30:52.272Z,2.30
2022-12-29T03:33:21.907Z,2.30
2022-12-29T03:35:49.391Z,2.30
2022-12-29T03:38:18.354Z,2.30
2022-12-29T03:40:46.863Z,2.30
2022-12-29T03:43:13.756Z,2.30
2022-12-29T03:45:40.942Z,2.40
2022-12-29T03:48:07.590Z,2.30
2022-12-29T03:50:34.304Z,2.40
2022-12-29T03:53:01.077Z,2.30
2022-12-29T03:55:27.700Z,2.40
2022-12-29T03:57:54.365Z,2.40
2022-12-29T04:00:21.021Z,2.40
2022-12-29T04:02:48.160Z,2.50
2022-12-29T04:05:14.937Z,2.50
2022-12-29T04:07:41.604Z,2.50
2022-12-29T04:10:08.717Z,2.50
2022-12-29T04:12:35.437Z,2.50
2022-12-29T04:15:02.056Z,2.50
2022-12-29T04:17:28.698Z,2.50
2022-12-29T04:20:15.294Z,2.50
2022-12-29T04:22:41.965Z,2.50
2022-12-29T04:25:08.821Z,2.50
2022-12-29T04:27:35.471Z,2.50
2022-12-29T04:30:02.475Z,2.60
2022-12-29T04:32:29.138Z,2.60
2022-12-29T04:34:55.762Z,2.60
2022-12-29T04:37:22.399Z,2.60
2022-12-29T04:39:49.050Z,2.50
2022-12-29T04:42:15.677Z,2.50
2022-12-29T04:44:45.201Z,2.50
2022-12-29T04:47:12.148Z,2.50
2022-12-29T04:49:38.780Z,2.50
2022-12-29T04:52:05.440Z,2.50
2022-12-29T04:54:32.055Z,2.50
2022-12-29T04:56:58.754Z,2.60
2022-12-29T04:59:25.403Z,2.60
2022-12-29T05:01:52.076Z,2.60
2022-12-29T05:04:18.812Z,2.60
2022-12-29T05:06:45.424Z,2.60
2022-12-29T05:09:12.096Z,2.60
2022-12-29T05:11:38.765Z,2.60
2022-12-29T05:14:05.431Z,2.60
2022-12-29T05:16:32.167Z,2.60
2022-12-29T05:18:58.863Z,2.70
2022-12-29T05:21:25.537Z,2.70
2022-12-29T05:23:52.230Z,2.70
2022-12-29T05:26:18.933Z,2.70
2022-12-29T05:28:45.717Z,2.70
2022-12-29T05:31:12.389Z,2.70
2022-12-29T05:33:39.080Z,2.80
2022-12-29T05:36:06.777Z,2.80
2022-12-29T05:38:34.550Z,2.80
2022-12-29T05:41:01.487Z,2.80
2022-12-29T05:43:28.183Z,2.80
2022-12-29T05:45:55.067Z,2.80
2022-12-29T05:48:21.780Z,2.80
2022-12-29T05:50:49.411Z,2.80
2022-12-29T05:53:16.117Z,2.80
2022-12-29T05:55:48.576Z,2.90
2022-12-29T05:58:16.425Z,3.00
2022-12-29T06:00:43.865Z,3.00
2022-12-29T06:03:10.642Z,3.00
2022-12-29T06:05:37.542Z,3.10
2022-12-29T06:08:04.582Z,3.10
2022-12-29T06:10:31.209Z,3.10
2022-12-29T06:12:57.843Z,3.20
2022-12-29T06:15:24.570Z,3.20
2022-12-29T06:17:51.322Z,3.20
2022-12-29T06:20:18.107Z,3.30
2022-12-29T06:22:50.950Z,3.30
2022-12-29T06:25:17.717Z,3.40
2022-12-29T06:27:44.505Z,3.40
2022-12-29T06:30:11.545Z,3.40
2022-12-29T06:32:38.477Z,3.40
2022-12-29T06:35:06.705Z,3.40
2022-12-29T06:37:33.386Z,3.40
2022-12-29T06:40:00.285Z,3.40
2022-12-29T06:42:27.043Z,3.40
2022-12-29T06:44:53.700Z,3.40
2022-12-29T06:47:20.357Z,3.50
2022-12-29T06:49:47.597Z,3.50
2022-12-29T06:52:14.259Z,3.50
2022-12-29T06:54:40.925Z,3.50
2022-12-29T06:57:07.743Z,3.60
2022-12-29T06:59:34.395Z,3.60
2022-12-29T07:02:03.250Z,3.60
2022-12-29T07:04:30.183Z,3.70
2022-12-29T07:06:56.910Z,3.70
2022-12-29T07:09:23.557Z,3.70
2022-12-29T07:11:50.203Z,3.80
2022-12-29T07:14:16.851Z,3.80
2022-12-29T07:16:43.682Z,3.90
2022-12-29T07:19:10.441Z,3.90
2022-12-29T07:21:37.062Z,3.90
2022-12-29T07:24:03.822Z,4.00
2022-12-29T07:26:36.096Z,3.90
2022-12-29T07:29:06.252Z,4.00
2022-12-29T07:31:32.916Z,4.00
2022-12-29T07:33:59.607Z,4.00
2022-12-29T07:36:32.386Z,4.10
2022-12-29T07:39:00.891Z,4.10
2022-12-29T07:41:27.545Z,4.10
2022-12-29T07:43:54.170Z,4.20
2022-12-29T07:46:55.216Z,4.20
2022-12-29T07:49:07.774Z,4.30
2022-12-29T07:51:34.486Z,4.30
2022-12-29T07:54:01.808Z,4.40
2022-12-29T07:56:28.533Z,4.40
2022-12-29T07:58:55.283Z,4.50
2022-12-29T08:01:24.322Z,4.50
2022-12-29T08:03:56.892Z,4.60
2022-12-29T08:06:24.128Z,4.60
2022-12-29T08:08:50.791Z,4.70
2022-12-29T08:11:17.429Z,4.70
2022-12-29T08:13:44.224Z,4.80
2022-12-29T08:16:10.915Z,4.80
2022-12-29T08:18:37.656Z,4.90
2022-12-29T08:21:05.106Z,4.90
2022-12-29T08:23:31.846Z,5.00
2022-12-29T08:25:59.836Z,5.00
2022-12-29T08:28:26.823Z,5.10
2022-12-29T08:30:53.621Z,5.20
2022-12-29T08:33:20.341Z,5.20
2022-12-29T08:35:47.004Z,5.30
2022-12-29T08:38:14.276Z,5.40
2022-12-29T08:40:40.972Z,5.50
2022-12-29T08:43:08.764Z,5.50
2022-12-29T08:45:35.615Z,5.60
2022-12-29T08:48:02.380Z,5.60
2022-12-29T08:50:29.019Z,5.70
2022-12-29T08:52:55.708Z,5.70
2022-12-29T08:55:23.480Z,5.80
2022-12-29T08:57:50.894Z,5.80
2022-12-29T09:00:17.686Z,5.90
2022-12-29T09:02:44.743Z,5.90
2022-12-29T09:05:11.547Z,5.90
2022-12-29T09:07:38.271Z,6.00
2022-12-29T09:10:05.219Z,6.00
2022-12-29T09:12:36.366Z,6.00
2022-12-29T09:15:04.220Z,6.00
2022-12-29T09:17:46.449Z,6.10
2022-12-29T09:20:13.887Z,6.10
2022-12-29T09:22:40.940Z,6.20
2022-12-29T09:25:08.056Z,6.30
2022-12-29T09:27:34.734Z,6.40
2022-12-29T09:30:01.563Z,6.50
2022-12-29T09:32:33.436Z,6.60
2022-12-29T09:35:00.576Z,6.70
2022-12-29T09:37:27.379Z,6.70
2022-12-29T09:39:54.614Z,6.80
2022-12-29T09:42:27.765Z,6.80
2022-12-29T09:45:05.430Z,6.90
2022-12-29T09:47:32.389Z,6.90
2022-12-29T09:50:04.700Z,7.00
2022-12-29T09:52:41.738Z,7.00
2022-12-29T09:55:14.462Z,7.10
2022-12-29T09:57:44.140Z,7.10
2022-12-29T10:00:10.918Z,7.10
2022-12-29T10:02:57.816Z,7.10
2022-12-29T10:05:44.807Z,7.10
2022-12-29T10:08:18.779Z,7.10
2022-12-29T10:10:56.769Z,7.10
2022-12-29T10:13:35.776Z,7.20
2022-12-29T10:16:11.707Z,7.20
2022-12-29T10:18:47.576Z,7.20
2022-12-29T10:21:14.213Z,7.30
2022-12-29T10:23:45.945Z,7.40
2022-12-29T10:26:24.077Z,7.50
2022-12-29T10:28:57.947Z,7.70
2022-12-29T10:31:25.713Z,7.90
2022-12-29T10:33:56.094Z,8.10
2022-12-29T10:36:35.641Z,8.20
2022-12-29T10:39:02.333Z,8.30
2022-12-29T10:41:33.838Z,8.40
2022-12-29T10:44:01.274Z,8.50
2022-12-29T10:46:34.194Z,8.60
2022-12-29T10:49:00.971Z,8.70
2022-12-29T10:51:32.947Z,8.70
2022-12-29T10:54:02.536Z,8.70
2022-12-29T10:56:29.260Z,8.70
2022-12-29T10:58:57.752Z,8.70
2022-12-29T11:01:29.790Z,8.70
2022-12-29T11:04:19.580Z,8.70
2022-12-29T11:06:46.342Z,8.70
2022-12-29T11:09:17.577Z,8.80
2022-12-29T11:11:44.320Z,8.80
2022-12-29T11:14:18.789Z,8.80
2022-12-29T11:16:46.259Z,8.80
2022-12-29T11:19:23.950Z,8.90
2022-12-29T11:21:50.795Z,9.00
2022-12-29T11:24:20.584Z,9.10
2022-12-29T11:26:47.612Z,9.10
2022-12-29T11:29:17.345Z,9.10
2022-12-29T11:31:48.465Z,9.10
2022-12-29T11:34:18.181Z,9.20
2022-12-29T11:36:44.960Z,9.10
2022-12-29T11:39:25.197Z,9.10
2022-12-29T11:41:53.505Z,9.20
2022-12-29T11:44:20.413Z,9.10
2022-12-29T11:46:48.812Z,9.20
2022-12-29T11:49:20.048Z,9.20
2022-12-29T11:51:48.591Z,9.30
2022-12-29T11:54:18.629Z,9.30
2022-12-29T11:56:45.395Z,9.40
2022-12-29T11:59:32.353Z,9.40
2022-12-29T12:01:59.993Z,9.50
2022-12-29T12:04:43.367Z,9.50
2022-12-29T12:07:18.910Z,9.50
2022-12-29T12:09:51.856Z,9.60
2022-12-29T12:12:37.199Z,9.60
2022-12-29T12:15:04.415Z,9.60
2022-12-29T12:17:39.397Z,9.60
2022-12-29T12:20:15.758Z,9.60
2022-12-29T12:22:50.350Z,9.60
2022-12-29T12:25:26.929Z,9.50
2022-12-29T12:28:15.801Z,9.50
2022-12-29T12:30:46.443Z,9.50
2022-12-29T12:33:16.365Z,9.50
2022-12-29T12:35:54.555Z,9.60
2022-12-29T12:38:40.074Z,9.60
2022-12-29T12:41:14.366Z,9.60
2022-12-29T12:43:50.692Z,9.60
2022-12-29T12:46:41.367Z,9.60
2022-12-29T12:49:27.815Z,9.50
2022-12-29T12:52:03.005Z,9.50
2022-12-29T12:54:41.931Z,9.50
2022-12-29T12:57:15.974Z,9.50
2022-12-29T12:59:42.869Z,9.50
2022-12-29T13:02:16.792Z,9.50
2022-12-29T13:04:49.862Z,9.50
2022-12-29T13:07:29.073Z,9.50
2022-12-29T13:10:06.776Z,9.50
2022-12-29T13:12:33.367Z,9.50
2022-12-29T13:15:06.337Z,9.50
2022-12-29T13:17:51.001Z,9.40
2022-12-29T13:20:24.992Z,9.40
2022-12-29T13:23:13.296Z,9.40
2022-12-29T13:25:51.127Z,9.40
2022-12-29T13:28:35.042Z,9.30
2022-12-29T13:31:05.469Z,9.30
2022-12-29T13:33:35.140Z,9.30
2022-12-29T13:36:04.967Z,9.30
2022-12-29T13:38:34.833Z,9.30
2022-12-29T13:41:04.791Z,9.30
2022-12-29T13:43:33.575Z,9.20
2022-12-29T13:46:04.100Z,9.20
2022-12-29T13:48:39.916Z,9.20
2022-12-29T13:51:09.598Z,9.10
2022-12-29T13:53:54.988Z,9.10
2022-12-29T13:56:30.763Z,9.10
2022-12-29T13:59:03.241Z,9.00
2022-12-29T14:01:42.796Z,8.90
2022-12-29T14:04:14.455Z,8.80
2022-12-29T14:06:41.919Z,8.80
2022-12-29T14:09:35.563Z,8.70
2022-12-29T14:12:02.524Z,8.60
2022-12-29T14:14:31.497Z,8.50
2022-12-29T14:17:14.957Z,8.40
2022-12-29T14:19:44.704Z,8.30
2022-12-29T14:22:12.009Z,8.20
2022-12-29T14:24:43.381Z,8.10
2022-12-29T14:27:15.967Z,8.00
2022-12-29T14:29:43.932Z,7.90
2022-12-29T14:32:26.022Z,7.90
2022-12-29T14:34:53.741Z,7.80
2022-12-29T14:37:34.105Z,7.70
2022-12-29T14:40:14.545Z,7.60
2022-12-29T14:43:22.748Z,7.60
2022-12-29T14:46:08.968Z,7.50
2022-12-29T14:48:39.277Z,7.40
2022-12-29T14:51:37.816Z,7.30
2022-12-29T14:54:39.838Z,7.30
2022-12-29T14:57:07.562Z,7.20
2022-12-29T14:59:35.287Z,7.10
2022-12-29T15:02:04.534Z,7.10
2022-12-29T15:04:39.547Z,7.00
2022-12-29T15:07:09.882Z,6.90
2022-12-29T15:09:40.681Z,6.80
2022-12-29T15:12:50.238Z,6.80
2022-12-29T15:16:04.747Z,6.70
2022-12-29T15:18:32.501Z,6.70
2022-12-29T15:21:04.392Z,6.70
2022-12-29T15:23:37.835Z,6.60
2022-12-29T15:26:06.338Z,6.50
2022-12-29T15:28:43.702Z,6.30
2022-12-29T15:31:15.796Z,6.20
2022-12-29T15:33:43.536Z,6.20
2022-12-29T15:36:13.405Z,6.10
2022-12-29T15:38:40.848Z,6.00
2022-12-29T15:41:14.536Z,5.90
2022-12-29T15:44:03.042Z,5.80
2022-12-29T15:46:31.185Z,5.80
2022-12-29T15:49:00.004Z,5.80
2022-12-29T15:51:31.883Z,5.70
2022-12-29T15:53:58.989Z,5.70
2022-12-29T15:56:28.988Z,5.80
2022-12-29T15:58:55.644Z,5.80
2022-12-29T16:01:28.236Z,5.80
2022-12-29T16:03:55.353Z,5.80
2022-12-29T16:06:35.292Z,5.70
2022-12-29T16:09:05.035Z,5.60
2022-12-29T16:11:36.771Z,5.60
2022-12-29T16:14:07.305Z,5.50
2022-12-29T16:16:37.548Z,5.40
2022-12-29T16:19:07.214Z,5.40
2022-12-29T16:21:35.194Z,5.40
2022-12-29T16:24:03.818Z,5.30
2022-12-29T16:26:30.631Z,5.30
2022-12-29T16:28:58.684Z,5.30
2022-12-29T16:31:49.012Z,5.10
2022-12-29T16:34:26.675Z,5.00
2022-12-29T16:36:55.008Z,5.00
2022-12-29T16:39:26.531Z,5.00
2022-12-29T16:41:53.783Z,5.00
2022-12-29T16:44:22.198Z,4.90
2022-12-29T16:46:59.873Z,5.00
2022-12-29T16:49:27.536Z,5.00
2022-12-29T16:51:55.836Z,5.00
2022-12-29T16:54:33.490Z,4.90
2022-12-29T16:57:01.391Z,4.80
2022-12-29T16:59:34.360Z,4.70
2022-12-29T17:02:02.760Z,4.60
2022-12-29T17:04:30.083Z,4.60
2022-12-29T17:06:56.742Z,4.60
2022-12-29T17:09:27.634Z,4.50
2022-12-29T17:12:10.398Z,4.50
2022-12-29T17:14:53.715Z,4.40
2022-12-29T17:17:20.384Z,4.20
2022-12-29T17:19:52.738Z,4.20
2022-12-29T17:22:20.999Z,4.20
2022-12-29T17:24:47.729Z,4.10
2022-12-29T17:27:43.851Z,4.10
2022-12-29T17:30:12.738Z,4.00
2022-12-29T17:32:40.531Z,4.00
2022-12-29T17:35:13.287Z,4.00
2022-12-29T17:37:39.979Z,4.00
2022-12-29T17:40:08.074Z,3.90
2022-12-29T17:42:37.565Z,3.90
2022-12-29T17:45:04.359Z,3.70
2022-12-29T17:47:31.096Z,3.60
2022-12-29T17:49:57.846Z,3.60
2022-12-29T17:52:24.631Z,3.60
2022-12-29T17:54:52.024Z,3.60
2022-12-29T17:57:19.419Z,3.60
2022-12-29T17:59:46.146Z,3.70
2022-12-29T18:02:24.064Z,3.80
2022-12-29T18:05:01.171Z,3.80
2022-12-29T18:07:35.415Z,3.90
2022-12-29T18:10:03.288Z,3.90
2022-12-29T18:12:38.173Z,3.80
2022-12-29T18:15:05.141Z,3.60
2022-12-29T18:17:31.871Z,3.60
2022-12-29T18:19:58.871Z,3.50
2022-12-29T18:22:28.889Z,3.40
2022-12-29T18:25:03.255Z,3.40
2022-12-29T18:27:29.958Z,3.30
2022-12-29T18:29:56.775Z,3.20
2022-12-29T18:32:23.617Z,3.10
2022-12-29T18:35:16.791Z,3.10
2022-12-29T18:37:43.512Z,3.00
2022-12-29T18:40:12.231Z,3.00
2022-12-29T18:42:39.024Z,3.10
2022-12-29T18:45:19.508Z,3.10
2022-12-29T18:47:46.255Z,3.00
2022-12-29T18:50:21.040Z,2.90
2022-12-29T18:52:47.927Z,2.80
2022-12-29T18:55:19.437Z,2.80
2022-12-29T18:57:47.531Z,2.80
2022-12-29T19:00:15.308Z,2.80
2022-12-29T19:02:42.385Z,2.70
2022-12-29T19:05:18.381Z,2.60
2022-12-29T19:07:45.071Z,2.60
2022-12-29T19:10:11.950Z,2.60
2022-12-29T19:12:38.632Z,2.70
2022-12-29T19:18:44.101Z,2.70
2022-12-29T19:21:11.844Z,2.70
2022-12-29T19:23:38.585Z,2.70
2022-12-29T19:26:05.371Z,2.50
2022-12-29T19:28:32.425Z,2.40
2022-12-29T19:31:00.222Z,2.40
2022-12-29T19:33:26.979Z,2.40
2022-12-29T19:35:58.145Z,2.50
2022-12-29T19:38:24.769Z,2.50
2022-12-29T19:40:51.656Z,2.60
2022-12-29T19:43:29.333Z,2.60
2022-12-29T19:45:56.115Z,2.70
2022-12-29T19:48:23.169Z,2.60
2022-12-29T19:50:52.802Z,2.50
2022-12-29T19:57:05.986Z,2.40
2022-12-29T19:59:33.086Z,2.50
2022-12-29T20:01:59.841Z,2.50
2022-12-29T20:04:26.647Z,2.60
2022-12-29T20:06:59.423Z,2.60
2022-12-29T20:09:26.100Z,2.70
2022-12-29T20:11:52.793Z,2.70
2022-12-29T20:14:20.642Z,2.70
2022-12-29T20:17:09.665Z,2.70
2022-12-29T20:19:35.393Z,2.70
2022-12-29T20:22:02.952Z,2.60
2022-12-29T20:24:29.905Z,2.60
2022-12-29T20:26:56.681Z,2.70
2022-12-29T20:29:23.468Z,2.70
2022-12-29T20:31:50.944Z,2.70
2022-12-29T20:34:18.506Z,2.70
2022-12-29T20:36:46.900Z,2.80
2022-12-29T20:39:18.097Z,2.80
2022-12-29T20:41:45.316Z,2.80
2022-12-29T20:44:12.466Z,2.80
2022-12-29T20:55:33.697Z,2.60
2022-12-29T21:00:47.956Z,2.70
2022-12-29T21:03:14.791Z,2.70
2022-12-29T21:05:41.535Z,2.70
2022-12-29T21:08:08.236Z,2.60
2022-12-29T21:10:56.677Z,2.60
2022-12-29T21:13:23.398Z,2.50
2022-12-29T21:19:21.774Z,2.40
2022-12-29T21:21:51.046Z,2.50
2022-12-29T21:24:28.890Z,2.50
2022-12-29T21:27:01.637Z,2.60
2022-12-29T21:29:28.372Z,2.70
2022-12-29T21:31:55.032Z,2.70
2022-12-29T21:34:21.739Z,2.70
2022-12-29T21:36:48.516Z,2.60
2022-12-29T21:39:16.507Z,2.70
2022-12-29T21:41:43.190Z,2.70
2022-12-29T21:44:28.475Z,2.70
2022-12-29T21:46:55.149Z,2.80
2022-12-29T21:49:26.155Z,2.80
2022-12-29T21:51:57.483Z,2.80
2022-12-29T21:54:44.049Z,2.80
2022-12-29T21:57:14.300Z,2.90
2022-12-29T22:00:03.198Z,2.90
2022-12-29T22:02:48.578Z,2.80
2022-12-29T22:05:34.999Z,2.70
2022-12-29T22:08:20.713Z,2.80
2022-12-29T22:11:07.088Z,2.80
2022-12-29T22:13:35.007Z,2.90
2022-12-29T22:16:05.465Z,2.90
2022-12-29T22:18:32.234Z,2.90
2022-12-29T22:20:58.933Z,2.80
2022-12-29T22:23:25.715Z,2.70
2022-12-29T22:25:52.491Z,2.70
2022-12-29T22:28:19.232Z,2.70
2022-12-29T22:30:45.969Z,2.80
2022-12-29T22:33:12.617Z,2.90
2022-12-29T22:35:39.287Z,2.90
2022-12-29T22:38:05.976Z,2.90
2022-12-29T22:40:32.632Z,2.90
2022-12-29T22:42:59.311Z,3.00
2022-12-29T22:45:25.957Z,3.00
2022-12-29T22:47:52.620Z,3.10
2022-12-29T22:50:19.238Z,3.20
2022-12-29T22:52:45.907Z,3.20
2022-12-29T22:55:12.537Z,3.20
2022-12-29T22:57:39.281Z,3.20
2022-12-29T23:00:16.177Z,3.20
2022-12-29T23:02:43.209Z,3.20
2022-12-29T23:08:43.569Z,3.20
2022-12-29T23:16:37.976Z,3.20
2022-12-29T23:19:57.334Z,3.20
2022-12-29T23:35:33.819Z,3.30
2022-12-29T23:38:00.515Z,3.30
2022-12-29T23:40:27.167Z,3.30
2022-12-29T23:42:53.779Z,3.20
2022-12-29T23:48:47.927Z,3.10
2022-12-29T23:51:14.546Z,3.00
2022-12-29T23:53:41.959Z,3.00
2022-12-29T23:56:09.958Z,3.10
2022-12-29T23:58:36.643Z,3.00
